Terminal Aerodrome Forecast
Issued by NWS Albuquerque, NM

Home | Current Version | Previous Version | Text Only | Print | Product List | Glossary On
Versions: 1 2 3 4 5 6 7 8 9 10 11 12 13 14 15 16 17 18
000
FTUS45 KABQ 272339
TAFABQ
TAF
KABQ 272339Z 2800/2824 33015G25KT P6SM BKN070
      TEMPO 2800/2802 33025G35KT
     FM280200 34015G25KT P6SM BKN100
     FM280500 34011KT P6SM BKN100
     FM280700 33008KT P6SM BKN090
     FM281900 33015G25KT P6SM VCSH SCT030 OVC060 PROB30 2819/2824
      6SM -SHRA SCT019 BKN029=

USA.gov is the U.S. government's official web portal to all federal, state and local government web resources and services.